createdAt,value
2018-05-07T00:02:20.174Z,3.50
2018-05-07T00:04:49.061Z,4.23
2018-05-07T00:07:18.178Z,4.10
2018-05-07T00:09:47.049Z,3.90
2018-05-07T00:12:15.933Z,3.70
2018-05-07T00:14:44.817Z,3.90
2018-05-07T00:17:13.708Z,3.30
2018-05-07T00:19:42.814Z,4.20
2018-05-07T00:22:11.886Z,4.70
2018-05-07T00:24:42.172Z,3.50
2018-05-07T00:27:10.953Z,3.13
2018-05-07T00:29:40.007Z,4.00
2018-05-07T00:32:08.888Z,3.83
2018-05-07T00:34:38.368Z,3.20
2018-05-07T00:37:07.976Z,3.67
2018-05-07T00:39:36.884Z,3.70
2018-05-07T00:42:06.367Z,3.97
2018-05-07T00:44:35.246Z,3.07
2018-05-07T00:47:04.373Z,3.20
2018-05-07T00:49:34.935Z,3.60
2018-05-07T00:52:03.801Z,3.90
2018-05-07T00:54:33.092Z,3.87
2018-05-07T00:57:01.947Z,3.73
2018-05-07T00:59:30.854Z,4.07
2018-05-07T01:02:00.273Z,3.20
2018-05-07T01:04:29.999Z,3.37
2018-05-07T01:06:58.897Z,4.10
2018-05-07T01:09:29.852Z,3.60
2018-05-07T01:11:59.434Z,3.70
2018-05-07T01:14:28.805Z,3.20
2018-05-07T01:16:58.217Z,3.63
2018-05-07T01:19:27.191Z,3.73
2018-05-07T01:21:56.112Z,3.87
2018-05-07T01:24:25.147Z,4.10
2018-05-07T01:26:54.097Z,3.80
2018-05-07T01:29:24.012Z,3.30
2018-05-07T01:31:52.910Z,4.73
2018-05-07T01:34:22.582Z,3.40
2018-05-07T01:36:52.122Z,3.50
2018-05-07T01:39:22.036Z,3.97
2018-05-07T01:41:50.924Z,3.50
2018-05-07T01:44:19.871Z,3.50
2018-05-07T01:46:49.595Z,3.80
2018-05-07T01:49:18.523Z,3.47
2018-05-07T01:51:47.396Z,3.93
2018-05-07T01:54:16.265Z,3.80
2018-05-07T01:56:46.440Z,3.67
2018-05-07T01:59:15.256Z,3.93
2018-05-07T02:01:44.137Z,3.40
2018-05-07T02:04:13.718Z,3.53
2018-05-07T02:06:43.393Z,3.97
2018-05-07T02:09:12.238Z,4.40
2018-05-07T02:11:41.132Z,4.00
2018-05-07T02:14:10.066Z,3.80
2018-05-07T02:16:38.957Z,3.57
2018-05-07T02:19:07.841Z,3.70
2018-05-07T02:21:37.462Z,3.43
2018-05-07T02:24:06.553Z,3.83
2018-05-07T02:26:37.124Z,3.50
2018-05-07T02:29:06.167Z,3.63
2018-05-07T02:31:35.062Z,3.83
2018-05-07T02:34:03.954Z,3.33
2018-05-07T02:36:33.048Z,3.20
2018-05-07T02:39:01.932Z,3.50
2018-05-07T02:41:30.788Z,3.77
2018-05-07T02:43:59.793Z,4.00
2018-05-07T02:46:29.379Z,4.07
2018-05-07T02:48:58.310Z,4.20
2018-05-07T02:51:27.242Z,3.80
2018-05-07T02:53:56.098Z,3.13
2018-05-07T02:56:25.193Z,3.03
2018-05-07T02:58:54.491Z,2.90
2018-05-07T03:01:24.421Z,3.23
2018-05-07T03:03:53.171Z,3.20
2018-05-07T03:06:22.807Z,3.30
2018-05-07T03:08:51.507Z,2.73
2018-05-07T03:11:20.274Z,2.80
2018-05-07T03:13:49.253Z,2.70
2018-05-07T03:16:18.866Z,2.60
2018-05-07T03:18:47.709Z,2.43
2018-05-07T03:21:16.624Z,2.23
2018-05-07T03:23:46.336Z,2.40
2018-05-07T03:26:15.972Z,2.50
2018-05-07T03:28:46.047Z,2.17
2018-05-07T03:31:14.834Z,2.47
2018-05-07T03:33:43.765Z,2.40
2018-05-07T03:36:12.975Z,2.40
2018-05-07T03:38:41.737Z,2.50
2018-05-07T03:41:10.846Z,3.30
2018-05-07T03:43:40.518Z,2.37
2018-05-07T03:46:10.250Z,2.27
2018-05-07T03:48:39.424Z,2.50
2018-05-07T03:51:09.257Z,3.20
2018-05-07T03:53:38.174Z,2.90
2018-05-07T03:56:07.120Z,2.10
2018-05-07T03:58:36.343Z,2.80
2018-05-07T04:01:05.648Z,2.57
2018-05-07T04:03:34.560Z,2.20
2018-05-07T04:06:03.416Z,2.43
2018-05-07T04:08:32.366Z,2.57
2018-05-07T04:11:02.425Z,2.40
2018-05-07T04:13:31.327Z,2.30
2018-05-07T04:16:00.130Z,2.80
2018-05-07T04:18:40.460Z,2.63
2018-05-07T04:21:12.372Z,2.63
2018-05-07T04:23:52.575Z,2.90
2018-05-07T04:26:22.092Z,2.30
2018-05-07T04:28:50.936Z,2.60
2018-05-07T04:31:19.828Z,2.63
2018-05-07T04:33:49.445Z,2.73
2018-05-07T04:36:18.797Z,2.67
2018-05-07T04:38:47.957Z,3.03
2018-05-07T04:41:16.856Z,3.80
2018-05-07T04:43:45.734Z,3.33
2018-05-07T04:46:15.450Z,2.97
2018-05-07T04:48:44.358Z,3.63
2018-05-07T04:51:13.658Z,3.50
2018-05-07T04:53:43.141Z,3.80
2018-05-07T04:56:12.032Z,3.70
2018-05-07T04:58:41.127Z,3.57
2018-05-07T05:01:10.429Z,3.30
2018-05-07T05:03:39.526Z,3.80
2018-05-07T05:06:08.408Z,4.90
2018-05-07T05:08:37.486Z,4.87
2018-05-07T05:11:07.049Z,4.60
2018-05-07T05:13:35.854Z,4.10
2018-05-07T05:16:04.594Z,3.43
2018-05-07T05:18:33.430Z,4.10
2018-05-07T05:21:02.457Z,2.67
2018-05-07T05:23:32.483Z,3.47
2018-05-07T05:26:01.384Z,2.80
2018-05-07T05:28:30.245Z,3.47
2018-05-07T05:30:59.166Z,3.23
2018-05-07T05:33:28.034Z,2.80
2018-05-07T05:35:56.935Z,3.00
2018-05-07T05:38:25.801Z,3.03
2018-05-07T05:40:56.147Z,3.33
2018-05-07T05:43:25.073Z,3.17
2018-05-07T05:45:53.912Z,3.27
2018-05-07T05:48:22.815Z,3.40
2018-05-07T05:50:51.678Z,3.20
2018-05-07T05:53:21.196Z,3.57
2018-05-07T05:55:50.082Z,2.90
2018-05-07T05:58:18.994Z,2.90
2018-05-07T06:00:47.894Z,3.43
2018-05-07T06:03:17.138Z,3.60
2018-05-07T06:05:46.013Z,3.37
2018-05-07T06:08:14.924Z,3.30
2018-05-07T06:10:43.722Z,3.87
2018-05-07T06:13:13.265Z,3.60
2018-05-07T06:15:42.249Z,3.17
2018-05-07T06:18:11.565Z,3.33
2018-05-07T06:20:40.413Z,3.33
2018-05-07T06:23:10.149Z,3.60
2018-05-07T06:25:39.079Z,3.27
2018-05-07T06:28:08.087Z,3.50
2018-05-07T06:30:38.011Z,3.47
2018-05-07T06:33:07.539Z,3.10
2018-05-07T06:35:36.431Z,4.30
2018-05-07T06:38:05.528Z,3.47
2018-05-07T06:40:34.619Z,4.07
2018-05-07T06:43:03.717Z,4.37
2018-05-07T06:45:32.575Z,3.70
2018-05-07T06:48:02.386Z,3.73
2018-05-07T06:50:31.274Z,4.07
2018-05-07T06:53:00.630Z,3.90
2018-05-07T06:55:29.938Z,3.73
2018-05-07T06:57:58.787Z,3.90
2018-05-07T07:00:28.346Z,3.47
2018-05-07T07:02:57.367Z,3.30
2018-05-07T07:05:26.645Z,2.83
2018-05-07T07:07:55.574Z,3.50
2018-05-07T07:10:24.430Z,3.10
2018-05-07T07:12:53.358Z,3.50
2018-05-07T07:15:22.257Z,3.60
2018-05-07T07:17:51.082Z,3.00
2018-05-07T07:20:19.849Z,3.27
2018-05-07T07:22:48.719Z,3.50
2018-05-07T07:25:17.578Z,3.60
2018-05-07T07:27:47.499Z,3.40
2018-05-07T07:30:16.613Z,3.87
2018-05-07T07:32:46.158Z,3.20
2018-05-07T07:35:15.298Z,3.73
2018-05-07T07:37:44.909Z,3.10
2018-05-07T07:40:13.719Z,4.10
2018-05-07T07:42:42.575Z,3.73
2018-05-07T07:45:12.951Z,4.20
2018-05-07T07:47:41.795Z,3.80
2018-05-07T07:50:10.698Z,4.07
2018-05-07T07:52:39.580Z,3.37
2018-05-07T07:55:08.888Z,4.87
2018-05-07T07:57:38.555Z,4.50
2018-05-07T08:00:07.506Z,3.73
2018-05-07T08:02:36.352Z,3.33
2018-05-07T08:05:06.701Z,3.80
2018-05-07T08:07:35.781Z,3.20
2018-05-07T08:10:05.676Z,3.57
2018-05-07T08:12:35.219Z,3.10
2018-05-07T08:15:04.368Z,3.30
2018-05-07T08:17:33.159Z,3.10
2018-05-07T08:20:02.084Z,3.10
2018-05-07T08:22:31.059Z,3.93
2018-05-07T08:25:00.516Z,3.23
2018-05-07T08:27:29.445Z,3.07
2018-05-07T08:29:58.974Z,3.40
2018-05-07T08:32:27.796Z,3.73
2018-05-07T08:34:56.900Z,3.30
2018-05-07T08:37:25.731Z,3.23
2018-05-07T08:39:55.254Z,3.70
2018-05-07T08:42:24.083Z,3.77
2018-05-07T08:44:53.041Z,3.93
2018-05-07T08:47:22.620Z,3.37
2018-05-07T08:49:52.150Z,3.53
2018-05-07T08:52:21.034Z,3.57
2018-05-07T08:54:49.945Z,3.77
2018-05-07T08:57:18.815Z,3.43
2018-05-07T08:59:48.526Z,3.30
2018-05-07T09:02:18.343Z,3.90
2018-05-07T09:04:47.473Z,3.90
2018-05-07T09:07:17.040Z,3.60
2018-05-07T09:09:46.711Z,3.63
2018-05-07T09:12:15.841Z,3.60
2018-05-07T09:14:44.727Z,3.20
2018-05-07T09:17:13.713Z,3.60
2018-05-07T09:19:43.734Z,2.90
2018-05-07T09:22:12.991Z,2.90
2018-05-07T09:24:42.172Z,3.07
2018-05-07T09:27:10.949Z,2.97
2018-05-07T09:29:39.918Z,2.80
2018-05-07T09:32:08.762Z,2.93
2018-05-07T09:34:37.852Z,3.00
2018-05-07T09:37:06.765Z,2.50
2018-05-07T09:39:35.676Z,2.33
2018-05-07T09:42:04.969Z,2.33
2018-05-07T09:44:33.862Z,2.70
2018-05-07T09:47:02.753Z,2.83
2018-05-07T09:49:31.599Z,2.43
2018-05-07T09:52:00.497Z,2.63
2018-05-07T09:54:30.027Z,2.67
2018-05-07T09:56:59.133Z,2.60
2018-05-07T09:59:28.654Z,2.40
2018-05-07T10:01:57.641Z,2.23
2018-05-07T10:04:26.512Z,3.30
2018-05-07T10:06:55.368Z,2.43
2018-05-07T10:09:24.257Z,2.30
2018-05-07T10:11:54.321Z,2.67
2018-05-07T10:14:24.046Z,2.80
2018-05-07T10:16:52.775Z,2.33
2018-05-07T10:19:21.469Z,2.80
2018-05-07T10:21:51.140Z,2.83
2018-05-07T10:24:19.872Z,2.33
2018-05-07T10:26:49.394Z,2.40
2018-05-07T10:29:18.291Z,2.33
2018-05-07T10:31:47.131Z,2.70
2018-05-07T10:34:16.052Z,3.03
2018-05-07T10:36:44.996Z,3.17
2018-05-07T10:39:13.738Z,2.53
2018-05-07T10:41:43.294Z,2.30
2018-05-07T10:44:12.042Z,2.93
2018-05-07T10:46:40.833Z,3.20
2018-05-07T10:49:10.325Z,3.20
2018-05-07T10:51:40.114Z,2.97
2018-05-07T10:54:09.139Z,2.87
2018-05-07T10:56:38.076Z,3.30
2018-05-07T10:59:07.161Z,2.40
2018-05-07T11:01:37.059Z,2.83
2018-05-07T11:04:06.221Z,2.80
2018-05-07T11:06:35.056Z,2.90
2018-05-07T11:09:03.913Z,2.57
2018-05-07T11:11:34.329Z,2.83
2018-05-07T11:14:03.651Z,2.80
2018-05-07T11:16:32.397Z,2.77
2018-05-07T11:19:01.237Z,2.80
2018-05-07T11:21:30.389Z,2.90
2018-05-07T11:23:59.291Z,2.70
2018-05-07T11:26:28.067Z,3.27
2018-05-07T11:28:57.676Z,3.10
2018-05-07T11:31:27.084Z,2.40
2018-05-07T11:33:56.644Z,2.77
2018-05-07T11:36:25.789Z,3.00
2018-05-07T11:38:54.557Z,2.93
2018-05-07T11:41:23.353Z,3.23
2018-05-07T11:43:52.956Z,3.60
2018-05-07T11:46:21.779Z,3.00
2018-05-07T11:48:50.534Z,2.90
2018-05-07T11:51:19.557Z,3.50
2018-05-07T11:53:48.251Z,3.00
2018-05-07T11:56:17.813Z,3.03
2018-05-07T11:58:47.795Z,3.57
2018-05-07T12:01:16.513Z,3.10
2018-05-07T12:03:45.331Z,3.50
2018-05-07T12:06:14.248Z,3.20
2018-05-07T12:08:43.074Z,3.10
2018-05-07T12:11:12.707Z,3.60
2018-05-07T12:13:41.791Z,2.73
2018-05-07T12:16:11.290Z,3.10
2018-05-07T12:18:40.090Z,3.20
2018-05-07T12:21:09.068Z,3.10
2018-05-07T12:23:39.024Z,3.50
2018-05-07T12:26:07.730Z,3.50
2018-05-07T12:28:36.452Z,3.47
2018-05-07T12:31:06.024Z,3.07
2018-05-07T12:33:34.881Z,3.43
2018-05-07T12:36:04.080Z,3.30
2018-05-07T12:38:32.934Z,3.33
2018-05-07T12:41:01.823Z,3.50
2018-05-07T12:43:30.933Z,2.90
2018-05-07T12:45:59.863Z,3.70
2018-05-07T12:48:28.608Z,3.17
2018-05-07T12:50:58.135Z,3.07
2018-05-07T12:53:27.000Z,3.13
2018-05-07T12:55:55.702Z,3.23
2018-05-07T12:58:24.632Z,3.10
2018-05-07T13:00:53.504Z,3.17
2018-05-07T13:03:22.373Z,3.37
2018-05-07T13:05:51.377Z,3.43
2018-05-07T13:08:20.334Z,2.63
2018-05-07T13:10:49.332Z,3.80
2018-05-07T13:13:18.106Z,3.83
2018-05-07T13:15:46.925Z,3.80
2018-05-07T13:18:16.276Z,2.90
2018-05-07T13:20:45.797Z,2.70
2018-05-07T13:23:14.687Z,3.10
2018-05-07T13:25:43.517Z,2.83
2018-05-07T13:28:12.481Z,3.33
2018-05-07T13:30:42.116Z,3.03
2018-05-07T13:33:11.217Z,2.77
2018-05-07T13:35:40.161Z,2.93
2018-05-07T13:38:09.755Z,2.80
2018-05-07T13:40:45.739Z,3.17
2018-05-07T13:43:14.813Z,3.03
2018-05-07T13:45:44.423Z,3.27
2018-05-07T13:48:14.645Z,3.33
2018-05-07T13:50:44.258Z,3.30
2018-05-07T13:53:13.953Z,2.50
2018-05-07T13:55:42.942Z,3.27
2018-05-07T13:58:11.736Z,2.63
2018-05-07T14:00:40.550Z,2.97
2018-05-07T14:03:09.306Z,2.50
2018-05-07T14:05:38.230Z,2.00
2018-05-07T14:08:07.003Z,2.23
2018-05-07T14:10:36.515Z,2.40
2018-05-07T14:13:05.174Z,2.50
2018-05-07T14:15:35.019Z,2.10
2018-05-07T14:18:03.808Z,2.23
2018-05-07T14:20:32.923Z,2.00
2018-05-07T14:23:01.860Z,2.50
2018-05-07T14:25:31.365Z,2.30
2018-05-07T14:28:00.262Z,2.23
2018-05-07T14:30:29.081Z,2.30
2018-05-07T14:32:57.830Z,2.57
2018-05-07T14:35:26.720Z,2.27
2018-05-07T14:37:55.531Z,3.20
2018-05-07T14:40:24.477Z,2.40
2018-05-07T14:42:54.712Z,2.80
2018-05-07T14:45:23.714Z,2.63
2018-05-07T14:47:52.640Z,2.53
2018-05-07T14:50:21.690Z,2.30
2018-05-07T14:52:50.593Z,2.43
2018-05-07T14:55:19.465Z,2.00
2018-05-07T14:57:49.043Z,2.40
2018-05-07T15:00:18.869Z,2.90
2018-05-07T15:02:48.048Z,2.60
2018-05-07T15:05:17.236Z,2.23
2018-05-07T15:07:46.276Z,2.40
2018-05-07T15:10:15.321Z,2.93
2018-05-07T15:12:44.221Z,2.53
2018-05-07T15:15:13.153Z,2.40
2018-05-07T15:17:42.596Z,2.67
2018-05-07T15:20:11.316Z,2.73
2018-05-07T15:22:41.315Z,2.53
2018-05-07T15:25:10.045Z,2.63
2018-05-07T15:27:38.927Z,2.70
2018-05-07T15:30:07.615Z,2.30
2018-05-07T15:32:36.429Z,2.67
2018-05-07T15:35:06.029Z,2.60
2018-05-07T15:37:35.107Z,2.57
2018-05-07T15:40:04.822Z,2.60
2018-05-07T15:42:34.300Z,2.60
2018-05-07T15:45:03.213Z,2.63
2018-05-07T15:47:32.657Z,2.60
2018-05-07T15:50:01.282Z,3.00
2018-05-07T15:52:30.707Z,2.80
2018-05-07T15:55:00.203Z,2.90
2018-05-07T15:57:29.005Z,2.97
2018-05-07T15:59:58.531Z,2.80
2018-05-07T16:02:27.411Z,2.90
2018-05-07T16:04:56.839Z,2.27
2018-05-07T16:07:25.621Z,2.70
2018-05-07T16:09:54.376Z,2.63
2018-05-07T16:12:29.952Z,3.07
2018-05-07T16:14:58.692Z,2.60
2018-05-07T16:17:28.401Z,2.90
2018-05-07T16:19:57.204Z,2.10
2018-05-07T16:22:26.821Z,2.97
2018-05-07T16:24:55.888Z,3.00
2018-05-07T16:27:25.025Z,3.13
2018-05-07T16:29:54.031Z,2.73
2018-05-07T16:32:23.027Z,3.00
2018-05-07T16:34:51.675Z,3.30
2018-05-07T16:37:20.598Z,2.97
2018-05-07T16:39:49.786Z,3.40
2018-05-07T16:42:18.536Z,2.70
2018-05-07T16:44:48.141Z,3.10
2018-05-07T16:47:17.570Z,3.00
2018-05-07T16:49:46.333Z,2.80
2018-05-07T16:52:15.149Z,2.60
2018-05-07T16:54:44.052Z,3.50
2018-05-07T16:57:13.709Z,3.47
2018-05-07T16:59:42.424Z,3.10
2018-05-07T17:02:11.224Z,3.30
2018-05-07T17:04:40.711Z,3.80
2018-05-07T17:07:09.991Z,3.30
2018-05-07T17:09:39.081Z,4.27
2018-05-07T17:12:08.608Z,3.53
2018-05-07T17:14:38.091Z,3.63
2018-05-07T17:17:07.559Z,4.30
2018-05-07T17:19:36.469Z,4.07
2018-05-07T17:22:05.396Z,3.63
2018-05-07T17:24:34.310Z,4.13
2018-05-07T17:27:03.431Z,4.20
2018-05-07T17:29:32.209Z,5.10
2018-05-07T17:32:00.969Z,3.93
2018-05-07T17:34:29.813Z,4.77
2018-05-07T17:36:58.702Z,4.77
2018-05-07T17:39:27.602Z,4.30
2018-05-07T17:41:57.162Z,4.40
2018-05-07T17:44:37.370Z,4.00
2018-05-07T17:47:18.486Z,4.00
2018-05-07T17:49:47.562Z,4.23
2018-05-07T17:52:16.528Z,5.17
2018-05-07T17:54:45.643Z,4.20
2018-05-07T17:57:14.718Z,5.53
2018-05-07T17:59:43.825Z,4.80
2018-05-07T18:02:12.908Z,5.90
2018-05-07T18:04:42.522Z,4.87
2018-05-07T18:07:12.766Z,5.23
2018-05-07T18:09:41.610Z,5.60
2018-05-07T18:12:10.392Z,6.40
2018-05-07T18:14:39.300Z,5.67
2018-05-07T18:17:08.060Z,5.20
2018-05-07T18:19:37.344Z,4.70
2018-05-07T18:22:06.273Z,5.30
2018-05-07T18:24:35.803Z,4.63
2018-05-07T18:27:04.868Z,5.33
2018-05-07T18:29:34.406Z,5.77
2018-05-07T18:32:03.272Z,5.10
2018-05-07T18:34:32.228Z,5.00
2018-05-07T18:37:01.059Z,4.63
2018-05-07T18:39:29.945Z,5.00
2018-05-07T18:41:59.441Z,5.17
2018-05-07T18:44:28.287Z,4.40
2018-05-07T18:46:57.111Z,5.60
2018-05-07T18:49:27.016Z,4.60
2018-05-07T18:51:55.954Z,5.10
2018-05-07T18:54:26.278Z,4.10
2018-05-07T18:56:55.970Z,4.30
2018-05-07T18:59:24.844Z,3.90
2018-05-07T19:01:54.562Z,4.83
2018-05-07T19:04:23.485Z,4.57
2018-05-07T19:06:52.312Z,4.50
2018-05-07T19:09:21.296Z,4.53
2018-05-07T19:11:51.037Z,5.30
2018-05-07T19:14:21.064Z,4.23
2018-05-07T19:16:49.931Z,3.23
2018-05-07T19:19:18.784Z,4.50
2018-05-07T19:21:47.574Z,4.70
2018-05-07T19:24:16.472Z,4.50
2018-05-07T19:26:45.242Z,4.37
2018-05-07T19:29:14.663Z,4.23
2018-05-07T19:31:43.421Z,4.50
2018-05-07T19:34:12.381Z,4.10
2018-05-07T19:36:42.000Z,3.90
2018-05-07T19:39:10.870Z,4.60
2018-05-07T19:41:39.967Z,4.17
2018-05-07T19:44:08.851Z,4.13
2018-05-07T19:46:38.496Z,4.10
2018-05-07T19:49:07.246Z,4.40
2018-05-07T19:51:36.803Z,4.70
2018-05-07T19:54:05.951Z,4.00
2018-05-07T19:56:34.839Z,3.60
2018-05-07T19:59:04.558Z,3.63
2018-05-07T20:01:34.157Z,3.17
2018-05-07T20:04:03.268Z,3.40
2018-05-07T20:06:32.112Z,4.03
2018-05-07T20:09:01.817Z,3.50
2018-05-07T20:11:30.615Z,3.50
2018-05-07T20:14:00.139Z,3.50
2018-05-07T20:16:29.889Z,3.20
2018-05-07T20:18:58.714Z,4.93
2018-05-07T20:21:28.451Z,3.80
2018-05-07T20:23:57.338Z,4.27
2018-05-07T20:26:27.172Z,3.73
2018-05-07T20:28:56.002Z,3.50
2018-05-07T20:31:25.504Z,3.73
2018-05-07T20:33:54.411Z,3.90
2018-05-07T20:36:24.154Z,3.73
2018-05-07T20:38:54.077Z,3.70
2018-05-07T20:41:22.927Z,3.73
2018-05-07T20:43:52.010Z,3.57
2018-05-07T20:46:21.136Z,4.17
2018-05-07T20:48:50.645Z,4.60
2018-05-07T20:51:19.484Z,4.70
2018-05-07T20:53:48.433Z,4.00
2018-05-07T20:56:17.253Z,3.77
2018-05-07T20:58:45.992Z,4.07
2018-05-07T21:01:15.508Z,3.97
2018-05-07T21:03:44.350Z,4.10
2018-05-07T21:06:13.140Z,4.60
2018-05-07T21:08:42.646Z,4.00
2018-05-07T21:11:11.630Z,3.83
2018-05-07T21:13:40.437Z,4.00
2018-05-07T21:16:10.719Z,4.90
2018-05-07T21:18:39.688Z,5.07
2018-05-07T21:21:08.635Z,5.60
2018-05-07T21:23:38.693Z,5.47
2018-05-07T21:26:07.476Z,5.63
2018-05-07T21:28:36.344Z,5.97
2018-05-07T21:31:05.227Z,4.30
2018-05-07T21:33:35.736Z,3.73
2018-05-07T21:36:04.664Z,3.83
2018-05-07T21:38:33.496Z,3.20
2018-05-07T21:41:02.341Z,3.87
2018-05-07T21:43:31.251Z,3.40
2018-05-07T21:46:00.129Z,2.93
2018-05-07T21:48:29.009Z,3.50
2018-05-07T21:50:57.851Z,2.60
2018-05-07T21:53:26.773Z,4.30
2018-05-07T21:55:56.292Z,3.17
2018-05-07T21:58:25.138Z,2.80
2018-05-07T22:00:54.072Z,2.97
2018-05-07T22:03:23.141Z,2.23
2018-05-07T22:05:53.675Z,2.73
2018-05-07T22:08:23.197Z,2.83
2018-05-07T22:10:53.070Z,3.03
2018-05-07T22:13:21.793Z,3.10
2018-05-07T22:15:51.207Z,2.87
2018-05-07T22:18:20.293Z,2.70
2018-05-07T22:20:49.190Z,2.90
2018-05-07T22:23:18.075Z,2.73
2018-05-07T22:25:47.875Z,2.60
2018-05-07T22:28:16.773Z,3.10
2018-05-07T22:30:45.671Z,2.90
2018-05-07T22:33:15.169Z,3.07
2018-05-07T22:35:45.191Z,3.07
2018-05-07T22:38:14.701Z,3.20
2018-05-07T22:40:43.574Z,2.90
2018-05-07T22:43:13.084Z,3.07
2018-05-07T22:45:41.982Z,3.17
2018-05-07T22:48:11.291Z,3.30
2018-05-07T22:50:40.362Z,3.30
2018-05-07T22:53:09.217Z,3.40
2018-05-07T22:55:38.156Z,3.50
2018-05-07T22:58:07.042Z,3.63
2018-05-07T23:00:35.885Z,3.60
2018-05-07T23:03:04.998Z,3.70
2018-05-07T23:05:34.727Z,3.53
2018-05-07T23:08:04.273Z,3.60
2018-05-07T23:10:33.146Z,3.40
2018-05-07T23:13:03.041Z,3.63
2018-05-07T23:15:31.882Z,3.60
2018-05-07T23:18:00.877Z,3.60
2018-05-07T23:20:30.109Z,3.00
2018-05-07T23:22:59.194Z,3.60
2018-05-07T23:25:28.418Z,3.00
2018-05-07T23:27:57.320Z,3.40
2018-05-07T23:30:26.262Z,3.50
2018-05-07T23:32:55.054Z,3.40
2018-05-07T23:35:25.399Z,3.60
2018-05-07T23:37:55.284Z,3.60
2018-05-07T23:40:24.813Z,3.50
2018-05-07T23:43:00.616Z,3.90
2018-05-07T23:45:30.336Z,3.87
2018-05-07T23:47:59.287Z,3.80
2018-05-07T23:50:28.125Z,4.17
2018-05-07T23:52:57.439Z,3.47
2018-05-07T23:55:27.984Z,4.87
2018-05-07T23:57:56.873Z,4.33
